sensor_id;sensor_type;location;lat;lon;timestamp;P1;durP1;ratioP1;P2;durP2;ratioP2
27925;SDS011;15267;47.838;12.128;2024-03-23T00:52:05;5.60;;;2.60;;
27925;SDS011;15267;47.838;12.128;2024-03-23T00:54:31;5.38;;;2.50;;
27925;SDS011;15267;47.838;12.128;2024-03-23T00:56:57;3.75;;;2.50;;
27925;SDS011;15267;47.838;12.128;2024-03-23T00:59:23;4.90;;;2.65;;
27925;SDS011;15267;47.838;12.128;2024-03-23T01:01:53;3.00;;;2.50;;
27925;SDS011;15267;47.838;12.128;2024-03-23T01:04:19;4.50;;;2.78;;
27925;SDS011;15267;47.838;12.128;2024-03-23T01:06:45;4.80;;;2.50;;
27925;SDS011;15267;47.838;12.128;2024-03-23T01:09:11;4.90;;;2.85;;
27925;SDS011;15267;47.838;12.128;2024-03-23T01:11:37;4.65;;;3.00;;
27925;SDS011;15267;47.838;12.128;2024-03-23T01:14:03;3.13;;;2.50;;
27925;SDS011;15267;47.838;12.128;2024-03-23T01:16:29;3.47;;;2.53;;
27925;SDS011;15267;47.838;12.128;2024-03-23T01:18:55;4.30;;;2.50;;
27925;SDS011;15267;47.838;12.128;2024-03-23T01:21:21;4.25;;;2.30;;
27925;SDS011;15267;47.838;12.128;2024-03-23T01:23:47;3.63;;;2.45;;
27925;SDS011;15267;47.838;12.128;2024-03-23T01:26:13;6.63;;;2.70;;
27925;SDS011;15267;47.838;12.128;2024-03-23T01:28:39;4.05;;;2.40;;
27925;SDS011;15267;47.838;12.128;2024-03-23T01:31:05;3.15;;;2.50;;
27925;SDS011;15267;47.838;12.128;2024-03-23T01:33:31;5.03;;;2.65;;
27925;SDS011;15267;47.838;12.128;2024-03-23T01:35:57;3.90;;;2.20;;
27925;SDS011;15267;47.838;12.128;2024-03-23T01:38:23;4.65;;;2.60;;
27925;SDS011;15267;47.838;12.128;2024-03-23T01:40:49;5.45;;;2.17;;
27925;SDS011;15267;47.838;12.128;2024-03-23T01:43:15;5.10;;;2.63;;
27925;SDS011;15267;47.838;12.128;2024-03-23T01:45:41;4.57;;;2.50;;
27925;SDS011;15267;47.838;12.128;2024-03-23T01:48:07;3.78;;;2.25;;
27925;SDS011;15267;47.838;12.128;2024-03-23T01:50:34;3.78;;;2.30;;
27925;SDS011;15267;47.838;12.128;2024-03-23T01:53:00;2.63;;;2.30;;
27925;SDS011;15267;47.838;12.128;2024-03-23T01:55:28;4.22;;;2.40;;
27925;SDS011;15267;47.838;12.128;2024-03-23T01:57:56;8.13;;;2.40;;
27925;SDS011;15267;47.838;12.128;2024-03-23T02:00:22;2.63;;;2.17;;
27925;SDS011;15267;47.838;12.128;2024-03-23T02:02:48;4.20;;;2.28;;
27925;SDS011;15267;47.838;12.128;2024-03-23T02:05:14;4.45;;;2.30;;
27925;SDS011;15267;47.838;12.128;2024-03-23T02:07:41;3.53;;;2.05;;
27925;SDS011;15267;47.838;12.128;2024-03-23T02:10:08;3.45;;;2.20;;
27925;SDS011;15267;47.838;12.128;2024-03-23T02:12:43;2.80;;;2.22;;
27925;SDS011;15267;47.838;12.128;2024-03-23T02:15:09;4.18;;;2.20;;
27925;SDS011;15267;47.838;12.128;2024-03-23T02:17:35;3.80;;;2.40;;
27925;SDS011;15267;47.838;12.128;2024-03-23T02:20:02;3.17;;;2.30;;
27925;SDS011;15267;47.838;12.128;2024-03-23T02:22:37;4.18;;;2.53;;
27925;SDS011;15267;47.838;12.128;2024-03-23T02:25:06;6.95;;;2.20;;
27925;SDS011;15267;47.838;12.128;2024-03-23T02:27:32;3.65;;;2.22;;
27925;SDS011;15267;47.838;12.128;2024-03-23T02:30:00;3.55;;;2.25;;
27925;SDS011;15267;47.838;12.128;2024-03-23T02:32:26;5.13;;;2.33;;
27925;SDS011;15267;47.838;12.128;2024-03-23T02:34:52;4.85;;;2.40;;
27925;SDS011;15267;47.838;12.128;2024-03-23T02:37:18;2.90;;;2.00;;
27925;SDS011;15267;47.838;12.128;2024-03-23T02:39:44;5.10;;;2.20;;
27925;SDS011;15267;47.838;12.128;2024-03-23T02:42:10;6.40;;;2.20;;
27925;SDS011;15267;47.838;12.128;2024-03-23T02:44:36;4.63;;;2.15;;
27925;SDS011;15267;47.838;12.128;2024-03-23T02:47:02;4.90;;;2.30;;
27925;SDS011;15267;47.838;12.128;2024-03-23T02:49:28;2.75;;;2.10;;
27925;SDS011;15267;47.838;12.128;2024-03-23T02:51:54;2.58;;;2.08;;
27925;SDS011;15267;47.838;12.128;2024-03-23T02:54:20;4.32;;;2.00;;
27925;SDS011;15267;47.838;12.128;2024-03-23T02:56:46;3.13;;;1.92;;
27925;SDS011;15267;47.838;12.128;2024-03-23T02:59:12;2.20;;;2.00;;
27925;SDS011;15267;47.838;12.128;2024-03-23T03:01:38;5.65;;;2.10;;
27925;SDS011;15267;47.838;12.128;2024-03-23T03:04:04;3.03;;;2.22;;
27925;SDS011;15267;47.838;12.128;2024-03-23T03:06:30;2.67;;;2.10;;
27925;SDS011;15267;47.838;12.128;2024-03-23T03:08:56;8.70;;;2.35;;
27925;SDS011;15267;47.838;12.128;2024-03-23T03:11:22;2.55;;;1.90;;
27925;SDS011;15267;47.838;12.128;2024-03-23T03:13:48;5.50;;;2.42;;
27925;SDS011;15267;47.838;12.128;2024-03-23T03:16:14;2.97;;;2.30;;
27925;SDS011;15267;47.838;12.128;2024-03-23T03:18:40;3.22;;;2.10;;
27925;SDS011;15267;47.838;12.128;2024-03-23T03:21:06;3.85;;;2.22;;
27925;SDS011;15267;47.838;12.128;2024-03-23T03:23:36;4.07;;;2.40;;
27925;SDS011;15267;47.838;12.128;2024-03-23T03:26:02;2.22;;;2.00;;
27925;SDS011;15267;47.838;12.128;2024-03-23T03:28:28;3.75;;;2.47;;
27925;SDS011;15267;47.838;12.128;2024-03-23T03:30:56;3.45;;;2.28;;
27925;SDS011;15267;47.838;12.128;2024-03-23T03:33:22;2.58;;;1.98;;
27925;SDS011;15267;47.838;12.128;2024-03-23T03:35:48;3.15;;;2.20;;
27925;SDS011;15267;47.838;12.128;2024-03-23T03:38:14;3.28;;;2.30;;
27925;SDS011;15267;47.838;12.128;2024-03-23T03:40:41;3.35;;;2.15;;
27925;SDS011;15267;47.838;12.128;2024-03-23T03:43:07;2.95;;;2.20;;
27925;SDS011;15267;47.838;12.128;2024-03-23T03:45:33;3.95;;;2.33;;
27925;SDS011;15267;47.838;12.128;2024-03-23T03:47:59;2.95;;;2.15;;
27925;SDS011;15267;47.838;12.128;2024-03-23T03:50:25;3.47;;;2.30;;
27925;SDS011;15267;47.838;12.128;2024-03-23T03:52:51;3.25;;;2.20;;
27925;SDS011;15267;47.838;12.128;2024-03-23T03:55:17;4.60;;;2.30;;
27925;SDS011;15267;47.838;12.128;2024-03-23T03:57:43;3.17;;;2.30;;
27925;SDS011;15267;47.838;12.128;2024-03-23T04:00:09;6.28;;;2.20;;
27925;SDS011;15267;47.838;12.128;2024-03-23T04:02:36;3.80;;;2.10;;
27925;SDS011;15267;47.838;12.128;2024-03-23T04:05:02;2.90;;;2.10;;
27925;SDS011;15267;47.838;12.128;2024-03-23T04:07:28;2.97;;;1.98;;
27925;SDS011;15267;47.838;12.128;2024-03-23T04:09:54;2.85;;;2.22;;
27925;SDS011;15267;47.838;12.128;2024-03-23T04:12:20;4.72;;;2.20;;
27925;SDS011;15267;47.838;12.128;2024-03-23T04:14:46;3.05;;;2.20;;
27925;SDS011;15267;47.838;12.128;2024-03-23T04:17:12;3.25;;;2.28;;
27925;SDS011;15267;47.838;12.128;2024-03-23T04:19:38;5.40;;;2.30;;
27925;SDS011;15267;47.838;12.128;2024-03-23T04:22:04;5.05;;;2.42;;
27925;SDS011;15267;47.838;12.128;2024-03-23T04:24:30;5.45;;;2.53;;
27925;SDS011;15267;47.838;12.128;2024-03-23T04:26:56;3.25;;;2.20;;
27925;SDS011;15267;47.838;12.128;2024-03-23T04:29:22;3.03;;;1.92;;
27925;SDS011;15267;47.838;12.128;2024-03-23T04:31:48;3.40;;;2.65;;
27925;SDS011;15267;47.838;12.128;2024-03-23T04:34:14;4.50;;;2.40;;
27925;SDS011;15267;47.838;12.128;2024-03-23T04:36:40;2.97;;;2.28;;
27925;SDS011;15267;47.838;12.128;2024-03-23T04:39:06;3.42;;;2.38;;
27925;SDS011;15267;47.838;12.128;2024-03-23T04:41:33;6.75;;;2.22;;
27925;SDS011;15267;47.838;12.128;2024-03-23T04:43:59;2.95;;;2.30;;
27925;SDS011;15267;47.838;12.128;2024-03-23T04:46:26;4.45;;;2.20;;
27925;SDS011;15267;47.838;12.128;2024-03-23T04:48:52;6.75;;;2.30;;
27925;SDS011;15267;47.838;12.128;2024-03-23T04:51:23;3.13;;;2.30;;
27925;SDS011;15267;47.838;12.128;2024-03-23T04:53:49;4.85;;;2.50;;
27925;SDS011;15267;47.838;12.128;2024-03-23T04:56:15;3.00;;;2.28;;
27925;SDS011;15267;47.838;12.128;2024-03-23T04:58:42;2.50;;;1.95;;
27925;SDS011;15267;47.838;12.128;2024-03-23T05:01:08;2.95;;;2.30;;
27925;SDS011;15267;47.838;12.128;2024-03-23T05:03:34;2.95;;;2.17;;
27925;SDS011;15267;47.838;12.128;2024-03-23T05:06:00;3.13;;;2.00;;
27925;SDS011;15267;47.838;12.128;2024-03-23T05:08:26;2.88;;;1.98;;
27925;SDS011;15267;47.838;12.128;2024-03-23T05:10:52;3.00;;;2.00;;
27925;SDS011;15267;47.838;12.128;2024-03-23T05:13:18;3.17;;;2.17;;
27925;SDS011;15267;47.838;12.128;2024-03-23T05:15:44;4.85;;;2.10;;
27925;SDS011;15267;47.838;12.128;2024-03-23T05:18:10;2.83;;;1.77;;
27925;SDS011;15267;47.838;12.128;2024-03-23T05:20:36;2.53;;;1.90;;
27925;SDS011;15267;47.838;12.128;2024-03-23T05:23:03;4.03;;;1.98;;
27925;SDS011;15267;47.838;12.128;2024-03-23T05:25:29;3.42;;;2.30;;
27925;SDS011;15267;47.838;12.128;2024-03-23T05:27:55;2.72;;;2.10;;
27925;SDS011;15267;47.838;12.128;2024-03-23T05:30:21;4.78;;;2.50;;
27925;SDS011;15267;47.838;12.128;2024-03-23T05:32:47;2.53;;;2.22;;
27925;SDS011;15267;47.838;12.128;2024-03-23T05:35:13;2.40;;;2.20;;
27925;SDS011;15267;47.838;12.128;2024-03-23T05:37:39;2.78;;;1.95;;
27925;SDS011;15267;47.838;12.128;2024-03-23T05:40:05;3.22;;;2.40;;
27925;SDS011;15267;47.838;12.128;2024-03-23T05:42:33;6.93;;;3.67;;
27925;SDS011;15267;47.838;12.128;2024-03-23T05:44:59;4.35;;;2.90;;
27925;SDS011;15267;47.838;12.128;2024-03-23T05:47:25;16.02;;;2.30;;
27925;SDS011;15267;47.838;12.128;2024-03-23T05:49:51;3.25;;;2.15;;
27925;SDS011;15267;47.838;12.128;2024-03-23T05:52:17;4.38;;;2.10;;
27925;SDS011;15267;47.838;12.128;2024-03-23T05:54:45;4.28;;;2.20;;
27925;SDS011;15267;47.838;12.128;2024-03-23T05:57:11;3.72;;;1.83;;
27925;SDS011;15267;47.838;12.128;2024-03-23T05:59:38;2.88;;;2.40;;
27925;SDS011;15267;47.838;12.128;2024-03-23T06:02:04;2.97;;;1.80;;
27925;SDS011;15267;47.838;12.128;2024-03-23T06:04:30;3.63;;;2.00;;
27925;SDS011;15267;47.838;12.128;2024-03-23T06:06:56;5.13;;;2.05;;
27925;SDS011;15267;47.838;12.128;2024-03-23T06:09:22;2.20;;;1.98;;
27925;SDS011;15267;47.838;12.128;2024-03-23T06:11:49;2.42;;;1.85;;
27925;SDS011;15267;47.838;12.128;2024-03-23T06:14:14;2.83;;;1.88;;
27925;SDS011;15267;47.838;12.128;2024-03-23T06:16:40;4.28;;;1.80;;
27925;SDS011;15267;47.838;12.128;2024-03-23T06:19:06;3.53;;;1.70;;
27925;SDS011;15267;47.838;12.128;2024-03-23T06:21:32;2.28;;;2.00;;
27925;SDS011;15267;47.838;12.128;2024-03-23T06:23:58;3.08;;;1.83;;
27925;SDS011;15267;47.838;12.128;2024-03-23T06:26:24;2.85;;;1.77;;
27925;SDS011;15267;47.838;12.128;2024-03-23T06:28:50;2.60;;;1.80;;
27925;SDS011;15267;47.838;12.128;2024-03-23T06:31:16;3.33;;;1.92;;
27925;SDS011;15267;47.838;12.128;2024-03-23T06:33:43;6.15;;;2.22;;
27925;SDS011;15267;47.838;12.128;2024-03-23T06:36:09;3.40;;;2.10;;
27925;SDS011;15267;47.838;12.128;2024-03-23T06:38:36;2.47;;;1.67;;
27925;SDS011;15267;47.838;12.128;2024-03-23T06:41:03;2.65;;;1.70;;
27925;SDS011;15267;47.838;12.128;2024-03-23T06:43:29;2.08;;;1.50;;
27925;SDS011;15267;47.838;12.128;2024-03-23T06:45:55;6.03;;;1.83;;
27925;SDS011;15267;47.838;12.128;2024-03-23T06:48:21;1.85;;;1.60;;
27925;SDS011;15267;47.838;12.128;2024-03-23T06:50:47;4.07;;;1.58;;
27925;SDS011;15267;47.838;12.128;2024-03-23T06:53:13;2.42;;;1.60;;
27925;SDS011;15267;47.838;12.128;2024-03-23T06:55:40;4.55;;;1.60;;
27925;SDS011;15267;47.838;12.128;2024-03-23T06:58:06;1.98;;;1.67;;
27925;SDS011;15267;47.838;12.128;2024-03-23T07:00:32;3.05;;;1.90;;
27925;SDS011;15267;47.838;12.128;2024-03-23T07:02:58;3.40;;;1.83;;
27925;SDS011;15267;47.838;12.128;2024-03-23T07:05:24;2.50;;;1.92;;
27925;SDS011;15267;47.838;12.128;2024-03-23T07:07:50;3.05;;;2.10;;
27925;SDS011;15267;47.838;12.128;2024-03-23T07:10:16;3.00;;;1.92;;
27925;SDS011;15267;47.838;12.128;2024-03-23T07:12:43;2.80;;;1.70;;
27925;SDS011;15267;47.838;12.128;2024-03-23T07:15:09;2.53;;;2.00;;
27925;SDS011;15267;47.838;12.128;2024-03-23T07:17:35;7.82;;;2.00;;
27925;SDS011;15267;47.838;12.128;2024-03-23T07:20:01;2.15;;;1.95;;
27925;SDS011;15267;47.838;12.128;2024-03-23T07:22:31;1.90;;;1.67;;
27925;SDS011;15267;47.838;12.128;2024-03-23T07:24:57;2.35;;;1.60;;
27925;SDS011;15267;47.838;12.128;2024-03-23T07:27:22;3.63;;;1.77;;
27925;SDS011;15267;47.838;12.128;2024-03-23T07:29:49;3.78;;;1.60;;
27925;SDS011;15267;47.838;12.128;2024-03-23T07:32:15;3.20;;;1.50;;
27925;SDS011;15267;47.838;12.128;2024-03-23T07:34:41;4.22;;;1.60;;
27925;SDS011;15267;47.838;12.128;2024-03-23T07:37:09;3.10;;;1.50;;
27925;SDS011;15267;47.838;12.128;2024-03-23T07:39:35;2.03;;;1.30;;
27925;SDS011;15267;47.838;12.128;2024-03-23T07:42:01;2.55;;;1.50;;
27925;SDS011;15267;47.838;12.128;2024-03-23T07:44:27;2.45;;;1.55;;
27925;SDS011;15267;47.838;12.128;2024-03-23T07:46:53;2.90;;;1.20;;
27925;SDS011;15267;47.838;12.128;2024-03-23T07:49:19;2.15;;;1.15;;
27925;SDS011;15267;47.838;12.128;2024-03-23T07:51:45;1.83;;;1.10;;
27925;SDS011;15267;47.838;12.128;2024-03-23T07:54:10;2.85;;;1.30;;
27925;SDS011;15267;47.838;12.128;2024-03-23T07:56:36;2.50;;;1.10;;
27925;SDS011;15267;47.838;12.128;2024-03-23T07:59:02;2.03;;;1.33;;
27925;SDS011;15267;47.838;12.128;2024-03-23T08:01:29;1.92;;;1.40;;
27925;SDS011;15267;47.838;12.128;2024-03-23T08:03:55;3.17;;;1.15;;
27925;SDS011;15267;47.838;12.128;2024-03-23T08:06:21;1.98;;;1.40;;
27925;SDS011;15267;47.838;12.128;2024-03-23T08:08:50;1.30;;;1.10;;
27925;SDS011;15267;47.838;12.128;2024-03-23T08:11:24;2.15;;;1.30;;
27925;SDS011;15267;47.838;12.128;2024-03-23T08:13:50;2.65;;;1.40;;
27925;SDS011;15267;47.838;12.128;2024-03-23T08:16:16;1.67;;;1.10;;
27925;SDS011;15267;47.838;12.128;2024-03-23T08:18:42;3.72;;;1.13;;
27925;SDS011;15267;47.838;12.128;2024-03-23T08:21:07;1.80;;;1.20;;
27925;SDS011;15267;47.838;12.128;2024-03-23T08:23:34;1.48;;;1.05;;
27925;SDS011;15267;47.838;12.128;2024-03-23T08:26:03;1.55;;;1.15;;
27925;SDS011;15267;47.838;12.128;2024-03-23T08:28:29;1.67;;;1.20;;
27925;SDS011;15267;47.838;12.128;2024-03-23T08:30:55;3.13;;;1.27;;
27925;SDS011;15267;47.838;12.128;2024-03-23T08:33:22;3.60;;;1.30;;
27925;SDS011;15267;47.838;12.128;2024-03-23T08:35:56;3.08;;;1.20;;
27925;SDS011;15267;47.838;12.128;2024-03-23T08:38:25;10.20;;;1.88;;
27925;SDS011;15267;47.838;12.128;2024-03-23T08:43:23;3.65;;;1.67;;
27925;SDS011;15267;47.838;12.128;2024-03-23T08:45:49;3.63;;;1.35;;
27925;SDS011;15267;47.838;12.128;2024-03-23T08:48:16;2.88;;;1.40;;
27925;SDS011;15267;47.838;12.128;2024-03-23T08:50:42;3.20;;;1.40;;
27925;SDS011;15267;47.838;12.128;2024-03-23T08:53:08;5.88;;;1.75;;
27925;SDS011;15267;47.838;12.128;2024-03-23T08:55:34;4.15;;;1.58;;
27925;SDS011;15267;47.838;12.128;2024-03-23T08:58:00;7.18;;;1.67;;
27925;SDS011;15267;47.838;12.128;2024-03-23T09:00:26;3.22;;;0.95;;
27925;SDS011;15267;47.838;12.128;2024-03-23T09:02:52;2.22;;;1.00;;
27925;SDS011;15267;47.838;12.128;2024-03-23T09:05:18;6.72;;;0.80;;
27925;SDS011;15267;47.838;12.128;2024-03-23T09:07:44;3.25;;;0.52;;
27925;SDS011;15267;47.838;12.128;2024-03-23T09:10:10;1.23;;;0.50;;
27925;SDS011;15267;47.838;12.128;2024-03-23T09:12:36;1.70;;;0.43;;
27925;SDS011;15267;47.838;12.128;2024-03-23T09:15:02;1.38;;;0.52;;
27925;SDS011;15267;47.838;12.128;2024-03-23T09:17:28;1.35;;;0.60;;
27925;SDS011;15267;47.838;12.128;2024-03-23T09:19:54;1.13;;;0.70;;
27925;SDS011;15267;47.838;12.128;2024-03-23T09:22:20;0.90;;;0.60;;
27925;SDS011;15267;47.838;12.128;2024-03-23T09:24:46;1.67;;;0.82;;
27925;SDS011;15267;47.838;12.128;2024-03-23T09:27:12;1.35;;;0.90;;
27925;SDS011;15267;47.838;12.128;2024-03-23T09:29:38;4.32;;;0.95;;
27925;SDS011;15267;47.838;12.128;2024-03-23T09:32:04;3.47;;;0.90;;
27925;SDS011;15267;47.838;12.128;2024-03-23T09:34:30;1.23;;;0.80;;
27925;SDS011;15267;47.838;12.128;2024-03-23T09:36:56;2.85;;;0.80;;
27925;SDS011;15267;47.838;12.128;2024-03-23T09:39:22;1.00;;;0.82;;
27925;SDS011;15267;47.838;12.128;2024-03-23T09:41:48;1.30;;;0.85;;
27925;SDS011;15267;47.838;12.128;2024-03-23T09:44:14;3.10;;;0.90;;
27925;SDS011;15267;47.838;12.128;2024-03-23T09:46:40;4.57;;;1.00;;
27925;SDS011;15267;47.838;12.128;2024-03-23T09:49:09;2.97;;;1.08;;
27925;SDS011;15267;47.838;12.128;2024-03-23T09:51:36;1.10;;;0.80;;
27925;SDS011;15267;47.838;12.128;2024-03-23T09:54:02;1.52;;;0.80;;
27925;SDS011;15267;47.838;12.128;2024-03-23T09:56:28;0.90;;;0.77;;
27925;SDS011;15267;47.838;12.128;2024-03-23T09:59:03;0.80;;;0.77;;
27925;SDS011;15267;47.838;12.128;2024-03-23T10:01:30;1.02;;;0.90;;
27925;SDS011;15267;47.838;12.128;2024-03-23T10:03:56;0.90;;;0.80;;
27925;SDS011;15267;47.838;12.128;2024-03-23T10:06:22;0.93;;;0.70;;
27925;SDS011;15267;47.838;12.128;2024-03-23T10:08:51;2.42;;;1.10;;
27925;SDS011;15267;47.838;12.128;2024-03-23T10:11:20;2.42;;;1.20;;
27925;SDS011;15267;47.838;12.128;2024-03-23T10:13:47;2.58;;;1.20;;
27925;SDS011;15267;47.838;12.128;2024-03-23T10:16:20;2.67;;;1.25;;
27925;SDS011;15267;47.838;12.128;2024-03-23T10:18:46;1.30;;;1.20;;
27925;SDS011;15267;47.838;12.128;2024-03-23T10:21:13;1.40;;;1.30;;
27925;SDS011;15267;47.838;12.128;2024-03-23T10:23:40;2.90;;;1.45;;
27925;SDS011;15267;47.838;12.128;2024-03-23T10:26:13;3.17;;;1.50;;
27925;SDS011;15267;47.838;12.128;2024-03-23T10:28:52;1.30;;;1.17;;
27925;SDS011;15267;47.838;12.128;2024-03-23T10:31:18;1.10;;;1.00;;
27925;SDS011;15267;47.838;12.128;2024-03-23T10:33:45;2.65;;;1.00;;
27925;SDS011;15267;47.838;12.128;2024-03-23T10:36:11;0.95;;;0.75;;
27925;SDS011;15267;47.838;12.128;2024-03-23T10:38:39;1.27;;;0.65;;
27925;SDS011;15267;47.838;12.128;2024-03-23T10:41:05;0.50;;;0.45;;
27925;SDS011;15267;47.838;12.128;2024-03-23T10:43:32;2.00;;;0.50;;
27925;SDS011;15267;47.838;12.128;2024-03-23T10:45:58;1.75;;;0.70;;
27925;SDS011;15267;47.838;12.128;2024-03-23T10:48:24;1.42;;;0.80;;
27925;SDS011;15267;47.838;12.128;2024-03-23T10:50:50;1.42;;;0.75;;
27925;SDS011;15267;47.838;12.128;2024-03-23T10:53:16;1.70;;;0.80;;
27925;SDS011;15267;47.838;12.128;2024-03-23T10:55:43;0.85;;;0.73;;
27925;SDS011;15267;47.838;12.128;2024-03-23T10:58:09;2.42;;;1.00;;
27925;SDS011;15267;47.838;12.128;2024-03-23T11:00:37;1.65;;;0.70;;
27925;SDS011;15267;47.838;12.128;2024-03-23T11:05:48;0.98;;;0.80;;
27925;SDS011;15267;47.838;12.128;2024-03-23T11:08:29;0.60;;;0.60;;
27925;SDS011;15267;47.838;12.128;2024-03-23T11:11:10;1.00;;;0.50;;
27925;SDS011;15267;47.838;12.128;2024-03-23T11:13:37;0.75;;;0.75;;
27925;SDS011;15267;47.838;12.128;2024-03-23T11:18:41;0.73;;;0.70;;
27925;SDS011;15267;47.838;12.128;2024-03-23T11:21:08;1.40;;;1.00;;
27925;SDS011;15267;47.838;12.128;2024-03-23T11:23:34;2.85;;;1.45;;
27925;SDS011;15267;47.838;12.128;2024-03-23T11:26:00;2.58;;;1.33;;
27925;SDS011;15267;47.838;12.128;2024-03-23T11:28:26;1.50;;;0.88;;
27925;SDS011;15267;47.838;12.128;2024-03-23T11:30:52;1.67;;;0.70;;
27925;SDS011;15267;47.838;12.128;2024-03-23T11:33:18;2.05;;;1.10;;
27925;SDS011;15267;47.838;12.128;2024-03-23T11:35:44;1.48;;;0.80;;
27925;SDS011;15267;47.838;12.128;2024-03-23T11:38:14;2.13;;;0.80;;
27925;SDS011;15267;47.838;12.128;2024-03-23T11:43:10;2.42;;;1.05;;
27925;SDS011;15267;47.838;12.128;2024-03-23T11:45:37;1.88;;;0.90;;
27925;SDS011;15267;47.838;12.128;2024-03-23T11:48:05;2.58;;;1.10;;
27925;SDS011;15267;47.838;12.128;2024-03-23T11:50:31;4.13;;;0.90;;
27925;SDS011;15267;47.838;12.128;2024-03-23T11:53:07;1.20;;;0.90;;
27925;SDS011;15267;47.838;12.128;2024-03-23T11:55:41;1.00;;;0.73;;
27925;SDS011;15267;47.838;12.128;2024-03-23T12:00:33;1.83;;;1.00;;
27925;SDS011;15267;47.838;12.128;2024-03-23T12:03:00;1.67;;;1.17;;
27925;SDS011;15267;47.838;12.128;2024-03-23T12:05:26;3.47;;;1.48;;
27925;SDS011;15267;47.838;12.128;2024-03-23T12:07:52;2.42;;;1.45;;
27925;SDS011;15267;47.838;12.128;2024-03-23T12:10:19;2.42;;;1.50;;
27925;SDS011;15267;47.838;12.128;2024-03-23T12:12:45;1.75;;;1.27;;
27925;SDS011;15267;47.838;12.128;2024-03-23T12:15:11;1.88;;;1.00;;
27925;SDS011;15267;47.838;12.128;2024-03-23T12:17:37;1.70;;;1.05;;
27925;SDS011;15267;47.838;12.128;2024-03-23T12:20:04;1.85;;;0.93;;
27925;SDS011;15267;47.838;12.128;2024-03-23T12:22:30;1.88;;;0.90;;
27925;SDS011;15267;47.838;12.128;2024-03-23T12:24:56;2.85;;;0.90;;
27925;SDS011;15267;47.838;12.128;2024-03-23T12:27:22;1.25;;;0.80;;
27925;SDS011;15267;47.838;12.128;2024-03-23T12:29:48;1.17;;;1.08;;
27925;SDS011;15267;47.838;12.128;2024-03-23T12:32:14;1.58;;;0.82;;
27925;SDS011;15267;47.838;12.128;2024-03-23T12:34:41;3.25;;;1.20;;
27925;SDS011;15267;47.838;12.128;2024-03-23T12:37:07;2.78;;;1.20;;
27925;SDS011;15267;47.838;12.128;2024-03-23T12:39:34;2.22;;;1.30;;
27925;SDS011;15267;47.838;12.128;2024-03-23T12:42:01;3.83;;;1.20;;
27925;SDS011;15267;47.838;12.128;2024-03-23T12:44:30;1.80;;;1.42;;
27925;SDS011;15267;47.838;12.128;2024-03-23T12:46:56;3.58;;;1.15;;
27925;SDS011;15267;47.838;12.128;2024-03-23T12:49:22;2.50;;;1.50;;
27925;SDS011;15267;47.838;12.128;2024-03-23T12:51:55;2.65;;;1.50;;
27925;SDS011;15267;47.838;12.128;2024-03-23T12:54:21;2.03;;;1.20;;
27925;SDS011;15267;47.838;12.128;2024-03-23T12:56:47;3.65;;;1.70;;
27925;SDS011;15267;47.838;12.128;2024-03-23T12:59:13;2.78;;;1.30;;
27925;SDS011;15267;47.838;12.128;2024-03-23T13:01:39;2.35;;;1.30;;
27925;SDS011;15267;47.838;12.128;2024-03-23T13:04:05;1.73;;;1.05;;
27925;SDS011;15267;47.838;12.128;2024-03-23T13:06:31;1.45;;;0.95;;
27925;SDS011;15267;47.838;12.128;2024-03-23T13:08:59;1.25;;;0.90;;
27925;SDS011;15267;47.838;12.128;2024-03-23T13:11:25;2.58;;;0.90;;
27925;SDS011;15267;47.838;12.128;2024-03-23T13:13:51;2.17;;;0.70;;
27925;SDS011;15267;47.838;12.128;2024-03-23T13:16:17;2.72;;;0.98;;
27925;SDS011;15267;47.838;12.128;2024-03-23T13:18:43;1.27;;;1.00;;
27925;SDS011;15267;47.838;12.128;2024-03-23T13:21:09;2.28;;;1.00;;
27925;SDS011;15267;47.838;12.128;2024-03-23T13:23:35;1.38;;;0.98;;
27925;SDS011;15267;47.838;12.128;2024-03-23T13:26:03;1.00;;;0.90;;
27925;SDS011;15267;47.838;12.128;2024-03-23T13:28:29;3.08;;;0.75;;
27925;SDS011;15267;47.838;12.128;2024-03-23T13:30:55;1.50;;;1.13;;
27925;SDS011;15267;47.838;12.128;2024-03-23T13:33:21;1.15;;;1.05;;
27925;SDS011;15267;47.838;12.128;2024-03-23T13:35:51;2.13;;;1.13;;
27925;SDS011;15267;47.838;12.128;2024-03-23T13:38:17;2.65;;;1.20;;
27925;SDS011;15267;47.838;12.128;2024-03-23T13:40:56;2.75;;;1.50;;
27925;SDS011;15267;47.838;12.128;2024-03-23T13:43:22;2.53;;;1.40;;
27925;SDS011;15267;47.838;12.128;2024-03-23T13:45:48;1.80;;;1.00;;
27925;SDS011;15267;47.838;12.128;2024-03-23T13:48:15;1.98;;;1.10;;
27925;SDS011;15267;47.838;12.128;2024-03-23T13:50:41;1.90;;;1.10;;
27925;SDS011;15267;47.838;12.128;2024-03-23T13:53:07;2.25;;;1.10;;
27925;SDS011;15267;47.838;12.128;2024-03-23T13:55:33;3.95;;;1.27;;
27925;SDS011;15267;47.838;12.128;2024-03-23T13:58:00;2.03;;;1.00;;
27925;SDS011;15267;47.838;12.128;2024-03-23T14:00:26;1.77;;;1.25;;
27925;SDS011;15267;47.838;12.128;2024-03-23T14:02:52;2.53;;;1.50;;
27925;SDS011;15267;47.838;12.128;2024-03-23T14:05:18;2.50;;;1.55;;
27925;SDS011;15267;47.838;12.128;2024-03-23T14:07:44;2.95;;;1.50;;
27925;SDS011;15267;47.838;12.128;2024-03-23T14:10:10;4.28;;;1.60;;
27925;SDS011;15267;47.838;12.128;2024-03-23T14:12:36;2.85;;;1.30;;
27925;SDS011;15267;47.838;12.128;2024-03-23T14:15:06;3.75;;;1.52;;
27925;SDS011;15267;47.838;12.128;2024-03-23T14:17:32;3.95;;;1.58;;
27925;SDS011;15267;47.838;12.128;2024-03-23T14:19:58;4.75;;;1.50;;
27925;SDS011;15267;47.838;12.128;2024-03-23T14:22:26;3.65;;;1.40;;
27925;SDS011;15267;47.838;12.128;2024-03-23T14:24:52;4.75;;;1.50;;
27925;SDS011;15267;47.838;12.128;2024-03-23T14:27:18;4.63;;;1.58;;
27925;SDS011;15267;47.838;12.128;2024-03-23T14:29:47;4.22;;;1.85;;
27925;SDS011;15267;47.838;12.128;2024-03-23T14:32:13;5.18;;;2.65;;
27925;SDS011;15267;47.838;12.128;2024-03-23T14:34:40;4.35;;;1.98;;
27925;SDS011;15267;47.838;12.128;2024-03-23T14:37:06;2.92;;;1.50;;
27925;SDS011;15267;47.838;12.128;2024-03-23T14:39:32;5.30;;;2.00;;
27925;SDS011;15267;47.838;12.128;2024-03-23T14:41:59;2.33;;;1.52;;
27925;SDS011;15267;47.838;12.128;2024-03-23T14:44:25;3.65;;;1.73;;
27925;SDS011;15267;47.838;12.128;2024-03-23T14:46:52;4.88;;;1.60;;
27925;SDS011;15267;47.838;12.128;2024-03-23T14:49:19;4.00;;;2.00;;
27925;SDS011;15267;47.838;12.128;2024-03-23T14:51:45;3.72;;;1.88;;
27925;SDS011;15267;47.838;12.128;2024-03-23T14:54:11;6.03;;;2.13;;
27925;SDS011;15267;47.838;12.128;2024-03-23T14:56:38;5.90;;;2.45;;
27925;SDS011;15267;47.838;12.128;2024-03-23T14:59:04;3.30;;;1.90;;
27925;SDS011;15267;47.838;12.128;2024-03-23T15:01:31;5.35;;;2.42;;
27925;SDS011;15267;47.838;12.128;2024-03-23T15:03:57;2.72;;;1.40;;
27925;SDS011;15267;47.838;12.128;2024-03-23T15:06:23;3.53;;;1.50;;
27925;SDS011;15267;47.838;12.128;2024-03-23T15:08:49;5.45;;;1.85;;
27925;SDS011;15267;47.838;12.128;2024-03-23T15:11:15;5.25;;;2.28;;
27925;SDS011;15267;47.838;12.128;2024-03-23T15:13:44;5.18;;;1.95;;
27925;SDS011;15267;47.838;12.128;2024-03-23T15:16:10;5.15;;;1.70;;
27925;SDS011;15267;47.838;12.128;2024-03-23T15:18:36;3.60;;;1.60;;
27925;SDS011;15267;47.838;12.128;2024-03-23T15:21:02;4.22;;;2.20;;
27925;SDS011;15267;47.838;12.128;2024-03-23T15:23:32;5.53;;;2.58;;
27925;SDS011;15267;47.838;12.128;2024-03-23T15:26:00;4.88;;;2.75;;
27925;SDS011;15267;47.838;12.128;2024-03-23T15:28:26;5.35;;;2.97;;
27925;SDS011;15267;47.838;12.128;2024-03-23T15:31:03;6.25;;;2.90;;
27925;SDS011;15267;47.838;12.128;2024-03-23T15:33:29;6.70;;;2.92;;